sensor_id;sensor_type;location;lat;lon;timestamp;pressure;altitude;pressure_sealevel;temperature;humidity
82262;BME280;71861;52.364;6.580;2023-09-12T03:01:16;101317.09;;;18.12;89.30
82262;BME280;71861;52.364;6.580;2023-09-12T03:03:41;101316.09;;;18.13;89.09
82262;BME280;71861;52.364;6.580;2023-09-12T03:06:07;101314.88;;;18.16;89.30
82262;BME280;71861;52.364;6.580;2023-09-12T03:08:32;101300.31;;;18.20;89.50
82262;BME280;71861;52.364;6.580;2023-09-12T03:10:58;101308.44;;;18.25;89.60
82262;BME280;71861;52.364;6.580;2023-09-12T03:15:55;101314.13;;;18.28;89.46
82262;BME280;71861;52.364;6.580;2023-09-12T03:18:20;101311.31;;;18.30;89.22
82262;BME280;71861;52.364;6.580;2023-09-12T03:20:46;101316.56;;;18.30;89.28
82262;BME280;71861;52.364;6.580;2023-09-12T03:23:11;101313.31;;;18.28;89.05
82262;BME280;71861;52.364;6.580;2023-09-12T03:25:37;101323.84;;;18.28;89.36
82262;BME280;71861;52.364;6.580;2023-09-12T03:28:06;101324.84;;;18.27;89.23
82262;BME280;71861;52.364;6.580;2023-09-12T03:30:33;101319.78;;;18.25;89.42
82262;BME280;71861;52.364;6.580;2023-09-12T03:32:59;101315.53;;;18.24;89.52
82262;BME280;71861;52.364;6.580;2023-09-12T03:35:25;101328.69;;;18.24;89.49
82262;BME280;71861;52.364;6.580;2023-09-12T03:37:50;101315.53;;;18.24;89.42
82262;BME280;71861;52.364;6.580;2023-09-12T03:40:15;101311.28;;;18.23;89.62
82262;BME280;71861;52.364;6.580;2023-09-12T03:42:41;101305.63;;;18.26;89.55
82262;BME280;71861;52.364;6.580;2023-09-12T03:45:07;101302.16;;;18.26;89.67
82262;BME280;71861;52.364;6.580;2023-09-12T03:47:32;101296.72;;;18.27;89.64
82262;BME280;71861;52.364;6.580;2023-09-12T03:49:57;101289.44;;;18.29;89.61
82262;BME280;71861;52.364;6.580;2023-09-12T03:52:23;101292.06;;;18.29;89.62
82262;BME280;71861;52.364;6.580;2023-09-12T03:54:48;101294.50;;;18.31;90.01
82262;BME280;71861;52.364;6.580;2023-09-12T03:57:14;101295.13;;;18.33;89.70
82262;BME280;71861;52.364;6.580;2023-09-12T03:59:39;101298.59;;;18.34;89.50
82262;BME280;71861;52.364;6.580;2023-09-12T04:02:04;101305.47;;;18.35;89.58
82262;BME280;71861;52.364;6.580;2023-09-12T04:04:30;101293.91;;;18.36;89.81
82262;BME280;71861;52.364;6.580;2023-09-12T04:06:55;101292.09;;;18.36;89.60
82262;BME280;71861;52.364;6.580;2023-09-12T04:09:20;101285.03;;;18.37;89.81
82262;BME280;71861;52.364;6.580;2023-09-12T04:11:46;101281.41;;;18.38;89.56
82262;BME280;71861;52.364;6.580;2023-09-12T04:14:12;101276.97;;;18.38;89.49
82262;BME280;71861;52.364;6.580;2023-09-12T04:16:37;101281.41;;;18.38;89.41
82262;BME280;71861;52.364;6.580;2023-09-12T04:19:03;101282.41;;;18.37;89.37
82262;BME280;71861;52.364;6.580;2023-09-12T04:21:28;101285.03;;;18.37;89.57
82262;BME280;71861;52.364;6.580;2023-09-12T04:23:54;101275.31;;;18.37;89.55
82262;BME280;71861;52.364;6.580;2023-09-12T04:26:19;101272.66;;;18.37;89.39
82262;BME280;71861;52.364;6.580;2023-09-12T04:28:46;101263.00;;;18.38;89.34
82262;BME280;71861;52.364;6.580;2023-09-12T04:31:12;101264.78;;;18.37;89.53
82262;BME280;71861;52.364;6.580;2023-09-12T04:33:37;101275.13;;;18.39;89.81
82262;BME280;71861;52.364;6.580;2023-09-12T04:36:02;101264.59;;;18.39;89.50
82262;BME280;71861;52.364;6.580;2023-09-12T04:38:28;101266.06;;;18.41;89.56
82262;BME280;71861;52.364;6.580;2023-09-12T04:40:55;101269.47;;;18.42;89.27
82262;BME280;71861;52.364;6.580;2023-09-12T04:43:21;101277.16;;;18.43;89.48
82262;BME280;71861;52.364;6.580;2023-09-12T04:45:46;101275.56;;;18.42;89.33
82262;BME280;71861;52.364;6.580;2023-09-12T04:48:11;101269.28;;;18.43;89.54
82262;BME280;71861;52.364;6.580;2023-09-12T04:50:41;101270.50;;;18.41;89.40
82262;BME280;71861;52.364;6.580;2023-09-12T04:53:07;101271.13;;;18.43;89.39
82262;BME280;71861;52.364;6.580;2023-09-12T04:55:35;101263.81;;;18.45;89.46
82262;BME280;71861;52.364;6.580;2023-09-12T04:58:00;101271.31;;;18.48;89.53
82262;BME280;71861;52.364;6.580;2023-09-12T05:00:26;101277.78;;;18.45;89.48
82262;BME280;71861;52.364;6.580;2023-09-12T05:02:51;101278.63;;;18.46;89.16
82262;BME280;71861;52.364;6.580;2023-09-12T05:05:16;101281.84;;;18.48;89.30
82262;BME280;71861;52.364;6.580;2023-09-12T05:07:42;101280.84;;;18.49;89.29
82262;BME280;71861;52.364;6.580;2023-09-12T05:10:07;101273.94;;;18.48;89.43
82262;BME280;71861;52.364;6.580;2023-09-12T05:12:32;101270.31;;;18.49;89.25
82262;BME280;71861;52.364;6.580;2023-09-12T05:14:58;101281.66;;;18.49;89.10
82262;BME280;71861;52.364;6.580;2023-09-12T05:17:23;101285.72;;;18.52;89.19
82262;BME280;71861;52.364;6.580;2023-09-12T05:19:49;101282.69;;;18.55;88.91
82262;BME280;71861;52.364;6.580;2023-09-12T05:22:14;101278.03;;;18.57;89.12
82262;BME280;71861;52.364;6.580;2023-09-12T05:24:39;101282.69;;;18.55;89.23
82262;BME280;71861;52.364;6.580;2023-09-12T05:27:05;101289.56;;;18.56;88.97
82262;BME280;71861;52.364;6.580;2023-09-12T05:29:31;101290.56;;;18.55;88.89
82262;BME280;71861;52.364;6.580;2023-09-12T05:31:56;101303.75;;;18.55;88.68
82262;BME280;71861;52.364;6.580;2023-09-12T05:34:21;101319.13;;;18.58;88.58
82262;BME280;71861;52.364;6.580;2023-09-12T05:36:47;101332.91;;;18.60;88.74
82262;BME280;71861;52.364;6.580;2023-09-12T05:39:12;101341.78;;;18.59;88.71
82262;BME280;71861;52.364;6.580;2023-09-12T05:41:39;101345.25;;;18.59;88.62
82262;BME280;71861;52.364;6.580;2023-09-12T05:44:04;101355.38;;;18.62;88.54
82262;BME280;71861;52.364;6.580;2023-09-12T05:46:30;101357.81;;;18.64;88.49
82262;BME280;71861;52.364;6.580;2023-09-12T05:48:55;101369.38;;;18.69;88.73
82262;BME280;71861;52.364;6.580;2023-09-12T05:51:20;101372.63;;;18.71;88.63
82262;BME280;71861;52.364;6.580;2023-09-12T05:53:46;101365.16;;;18.75;88.49
82262;BME280;71861;52.364;6.580;2023-09-12T05:56:11;101363.34;;;18.75;88.11
82262;BME280;71861;52.364;6.580;2023-09-12T05:58:36;101357.69;;;18.78;87.88
82262;BME280;71861;52.364;6.580;2023-09-12T06:01:06;101353.19;;;18.79;87.86
82262;BME280;71861;52.364;6.580;2023-09-12T06:03:32;101358.06;;;18.82;87.65
82262;BME280;71861;52.364;6.580;2023-09-12T06:05:57;101354.03;;;18.86;87.71
82262;BME280;71861;52.364;6.580;2023-09-12T06:08:22;101353.84;;;18.87;87.50
82262;BME280;71861;52.364;6.580;2023-09-12T06:10:48;101363.78;;;18.92;87.60
82262;BME280;71861;52.364;6.580;2023-09-12T06:13:14;101359.34;;;18.92;87.52
82262;BME280;71861;52.364;6.580;2023-09-12T06:15:39;101365.38;;;18.93;87.39
82262;BME280;71861;52.364;6.580;2023-09-12T06:18:06;101359.34;;;18.92;87.51
82262;BME280;71861;52.364;6.580;2023-09-12T06:20:31;101352.81;;;18.88;87.29
82262;BME280;71861;52.364;6.580;2023-09-12T06:22:57;101354.03;;;18.86;87.36
82262;BME280;71861;52.364;6.580;2023-09-12T06:25:23;101344.69;;;18.83;87.48
82262;BME280;71861;52.364;6.580;2023-09-12T06:27:49;101336.81;;;18.83;87.51
82262;BME280;71861;52.364;6.580;2023-09-12T06:30:15;101335.81;;;18.84;87.33
82262;BME280;71861;52.364;6.580;2023-09-12T06:32:40;101342.69;;;18.85;87.29
82262;BME280;71861;52.364;6.580;2023-09-12T06:35:06;101337.84;;;18.89;87.17
82262;BME280;71861;52.364;6.580;2023-09-12T06:37:32;101333.38;;;18.89;87.25
82262;BME280;71861;52.364;6.580;2023-09-12T06:39:57;101334.81;;;18.92;87.01
82262;BME280;71861;52.364;6.580;2023-09-12T06:42:22;101337.25;;;18.93;87.23
82262;BME280;71861;52.364;6.580;2023-09-12T06:44:48;101343.91;;;18.96;86.88
82262;BME280;71861;52.364;6.580;2023-09-12T06:47:13;101339.91;;;19.00;87.17
82262;BME280;71861;52.364;6.580;2023-09-12T06:49:38;101347.41;;;19.03;87.14
82262;BME280;71861;52.364;6.580;2023-09-12T06:52:04;101356.72;;;19.12;87.27
82262;BME280;71861;52.364;6.580;2023-09-12T06:54:30;101352.69;;;19.22;86.83
82262;BME280;71861;52.364;6.580;2023-09-12T06:56:55;101356.75;;;19.31;86.53
82262;BME280;71861;52.364;6.580;2023-09-12T06:59:21;101350.69;;;19.37;86.50
82262;BME280;71861;52.364;6.580;2023-09-12T07:01:46;101364.88;;;19.43;85.89
82262;BME280;71861;52.364;6.580;2023-09-12T07:04:11;101363.06;;;19.50;85.85
82262;BME280;71861;52.364;6.580;2023-09-12T07:06:36;101376.44;;;19.55;85.89
82262;BME280;71861;52.364;6.580;2023-09-12T07:09:02;101385.16;;;19.62;86.19
82262;BME280;71861;52.364;6.580;2023-09-12T07:11:29;101380.69;;;19.69;86.44
82262;BME280;71861;52.364;6.580;2023-09-12T07:13:54;101388.38;;;19.83;86.64
82262;BME280;71861;52.364;6.580;2023-09-12T07:16:20;101391.00;;;20.03;86.66
82262;BME280;71861;52.364;6.580;2023-09-12T07:18:47;101386.13;;;20.13;85.04
82262;BME280;71861;52.364;6.580;2023-09-12T07:21:12;101391.81;;;20.23;85.36
82262;BME280;71861;52.364;6.580;2023-09-12T07:23:37;101388.13;;;20.24;84.77
82262;BME280;71861;52.364;6.580;2023-09-12T07:26:03;101384.09;;;20.22;84.40
82262;BME280;71861;52.364;6.580;2023-09-12T07:28:30;101381.47;;;20.15;84.00
82262;BME280;71861;52.364;6.580;2023-09-12T07:30:56;101388.31;;;20.10;84.11
82262;BME280;71861;52.364;6.580;2023-09-12T07:33:22;101385.09;;;20.08;84.32
82262;BME280;71861;52.364;6.580;2023-09-12T07:35:48;101387.34;;;20.04;84.40
82262;BME280;71861;52.364;6.580;2023-09-12T07:38:13;101383.09;;;20.03;84.43
82262;BME280;71861;52.364;6.580;2023-09-12T07:40:41;101381.44;;;20.02;84.82
82262;BME280;71861;52.364;6.580;2023-09-12T07:43:06;101385.31;;;20.00;84.75
82262;BME280;71861;52.364;6.580;2023-09-12T07:45:32;101384.69;;;20.04;84.88
82262;BME280;71861;52.364;6.580;2023-09-12T07:48:04;101380.25;;;20.05;84.77
82262;BME280;71861;52.364;6.580;2023-09-12T07:50:30;101372.72;;;20.08;84.90
82262;BME280;71861;52.364;6.580;2023-09-12T07:52:55;101377.00;;;20.09;84.27
82262;BME280;71861;52.364;6.580;2023-09-12T07:55:20;101379.84;;;20.14;84.66
82262;BME280;71861;52.364;6.580;2023-09-12T07:57:46;101371.13;;;20.14;84.27
82262;BME280;71861;52.364;6.580;2023-09-12T08:00:11;101371.53;;;20.17;85.00
82262;BME280;71861;52.364;6.580;2023-09-12T08:02:37;101368.47;;;20.14;84.14
82262;BME280;71861;52.364;6.580;2023-09-12T08:05:04;101373.94;;;20.12;84.42
82262;BME280;71861;52.364;6.580;2023-09-12T08:07:29;101375.16;;;20.16;84.39
82262;BME280;71861;52.364;6.580;2023-09-12T08:09:57;101360.13;;;20.23;84.14
82262;BME280;71861;52.364;6.580;2023-09-12T08:12:25;101373.91;;;20.25;83.89
82262;BME280;71861;52.364;6.580;2023-09-12T08:14:52;101369.66;;;20.31;84.25
82262;BME280;71861;52.364;6.580;2023-09-12T08:17:17;101373.91;;;20.32;84.12
82262;BME280;71861;52.364;6.580;2023-09-12T08:19:43;101372.66;;;20.41;84.18
82262;BME280;71861;52.364;6.580;2023-09-12T08:22:09;101371.19;;;20.51;83.78
82262;BME280;71861;52.364;6.580;2023-09-12T08:24:36;101374.63;;;20.58;83.37
82262;BME280;71861;52.364;6.580;2023-09-12T08:27:02;101367.47;;;20.65;82.84
82262;BME280;71861;52.364;6.580;2023-09-12T08:29:29;101375.56;;;20.70;82.58
82262;BME280;71861;52.364;6.580;2023-09-12T08:31:54;101371.28;;;20.76;82.09
82262;BME280;71861;52.364;6.580;2023-09-12T08:34:20;101378.72;;;20.85;82.19
82262;BME280;71861;52.364;6.580;2023-09-12T08:36:46;101370.78;;;20.92;81.77
82262;BME280;71861;52.364;6.580;2023-09-12T08:39:14;101377.25;;;21.02;81.76
82262;BME280;71861;52.364;6.580;2023-09-12T08:41:41;101374.13;;;21.12;81.18
82262;BME280;71861;52.364;6.580;2023-09-12T08:44:07;101376.91;;;21.23;81.19
82262;BME280;71861;52.364;6.580;2023-09-12T08:46:33;101372.97;;;21.32;80.72
82262;BME280;71861;52.364;6.580;2023-09-12T08:48:59;101373.34;;;21.36;79.85
82262;BME280;71861;52.364;6.580;2023-09-12T08:51:25;101383.59;;;21.51;79.93
82262;BME280;71861;52.364;6.580;2023-09-12T08:53:51;101381.44;;;21.66;80.05
82262;BME280;71861;52.364;6.580;2023-09-12T08:56:17;101382.91;;;21.62;78.47
82262;BME280;71861;52.364;6.580;2023-09-12T08:58:43;101378.94;;;21.53;78.15
82262;BME280;71861;52.364;6.580;2023-09-12T09:01:11;101381.56;;;21.53;78.73
82262;BME280;71861;52.364;6.580;2023-09-12T09:03:39;101383.56;;;21.57;78.07
82262;BME280;71861;52.364;6.580;2023-09-12T09:06:06;101382.47;;;21.65;78.32
82262;BME280;71861;52.364;6.580;2023-09-12T09:08:34;101392.63;;;21.68;77.47
82262;BME280;71861;52.364;6.580;2023-09-12T09:11:00;101390.56;;;21.70;77.71
82262;BME280;71861;52.364;6.580;2023-09-12T09:13:31;101390.03;;;21.86;77.51
82262;BME280;71861;52.364;6.580;2023-09-12T09:16:13;101390.63;;;21.88;77.19
82262;BME280;71861;52.364;6.580;2023-09-12T09:21:29;101392.78;;;22.33;77.20
82262;BME280;71861;52.364;6.580;2023-09-12T09:24:04;101398.00;;;22.76;76.70
82262;BME280;71861;52.364;6.580;2023-09-12T09:29:15;101382.56;;;23.55;74.55
82262;BME280;71861;52.364;6.580;2023-09-12T09:31:42;101390.19;;;24.09;73.84
82262;BME280;71861;52.364;6.580;2023-09-12T09:34:14;101384.88;;;24.60;70.51
82262;BME280;71861;52.364;6.580;2023-09-12T09:37:02;101383.59;;;25.03;68.67
82262;BME280;71861;52.364;6.580;2023-09-12T09:39:28;101395.34;;;25.07;68.26
82262;BME280;71861;52.364;6.580;2023-09-12T09:41:57;101392.53;;;25.13;67.74
82262;BME280;71861;52.364;6.580;2023-09-12T09:44:23;101390.03;;;25.07;66.86
82262;BME280;71861;52.364;6.580;2023-09-12T09:46:53;101393.25;;;25.09;67.54
82262;BME280;71861;52.364;6.580;2023-09-12T09:49:20;101395.31;;;25.51;66.06
82262;BME280;71861;52.364;6.580;2023-09-12T09:51:45;101388.19;;;25.90;64.26
82262;BME280;71861;52.364;6.580;2023-09-12T09:54:12;101393.06;;;26.14;62.82
82262;BME280;71861;52.364;6.580;2023-09-12T09:56:55;101398.56;;;26.68;64.52
82262;BME280;71861;52.364;6.580;2023-09-12T09:59:23;101400.00;;;27.07;61.53
82262;BME280;71861;52.364;6.580;2023-09-12T10:01:51;101397.09;;;27.08;60.18
82262;BME280;71861;52.364;6.580;2023-09-12T10:04:18;101399.03;;;26.86;62.18
82262;BME280;71861;52.364;6.580;2023-09-12T10:06:46;101393.38;;;26.61;61.65
82262;BME280;71861;52.364;6.580;2023-09-12T10:09:12;101398.81;;;26.45;59.71
82262;BME280;71861;52.364;6.580;2023-09-12T10:11:39;101398.84;;;26.50;60.96
82262;BME280;71861;52.364;6.580;2023-09-12T10:14:05;101398.72;;;26.83;60.84
82262;BME280;71861;52.364;6.580;2023-09-12T10:16:45;101401.84;;;27.01;60.87
82262;BME280;71861;52.364;6.580;2023-09-12T10:19:15;101387.91;;;27.52;59.55
82262;BME280;71861;52.364;6.580;2023-09-12T10:21:49;101401.41;;;27.73;58.04
82262;BME280;71861;52.364;6.580;2023-09-12T10:24:15;101402.16;;;28.05;59.48
82262;BME280;71861;52.364;6.580;2023-09-12T10:26:44;101406.44;;;28.11;58.18
82262;BME280;71861;52.364;6.580;2023-09-12T10:29:13;101400.03;;;28.12;56.75
82262;BME280;71861;52.364;6.580;2023-09-12T10:31:39;101405.47;;;27.85;57.35
82262;BME280;71861;52.364;6.580;2023-09-12T10:34:05;101400.19;;;27.53;58.62
82262;BME280;71861;52.364;6.580;2023-09-12T10:36:36;101412.03;;;27.31;58.28
82262;BME280;71861;52.364;6.580;2023-09-12T10:39:04;101413.66;;;27.10;58.38
82262;BME280;71861;52.364;6.580;2023-09-12T10:41:30;101416.03;;;27.07;58.89
82262;BME280;71861;52.364;6.580;2023-09-12T10:43:57;101417.66;;;27.34;59.08
82262;BME280;71861;52.364;6.580;2023-09-12T10:46:23;101416.81;;;27.60;56.30
82262;BME280;71861;52.364;6.580;2023-09-12T10:48:49;101414.66;;;27.62;57.99
82262;BME280;71861;52.364;6.580;2023-09-12T10:51:16;101422.25;;;27.76;56.96
82262;BME280;71861;52.364;6.580;2023-09-12T10:53:49;101413.28;;;27.92;57.51
82262;BME280;71861;52.364;6.580;2023-09-12T10:56:20;101410.97;;;28.05;53.18
82262;BME280;71861;52.364;6.580;2023-09-12T11:01:30;101410.72;;;28.07;56.96
82262;BME280;71861;52.364;6.580;2023-09-12T11:03:56;101407.88;;;28.28;57.02
82262;BME280;71861;52.364;6.580;2023-09-12T11:06:31;101406.56;;;28.36;52.99
82262;BME280;71861;52.364;6.580;2023-09-12T11:09:26;101409.59;;;27.98;54.46
82262;BME280;71861;52.364;6.580;2023-09-12T11:12:02;101405.88;;;27.67;54.62
82262;BME280;71861;52.364;6.580;2023-09-12T11:14:28;101390.56;;;27.52;55.62
82262;BME280;71861;52.364;6.580;2023-09-12T11:17:20;101385.03;;;27.64;55.44
82262;BME280;71861;52.364;6.580;2023-09-12T11:19:50;101392.38;;;27.84;54.43
82262;BME280;71861;52.364;6.580;2023-09-12T11:22:28;101394.31;;;27.88;54.32
82262;BME280;71861;52.364;6.580;2023-09-12T11:24:56;101401.13;;;27.74;55.20
82262;BME280;71861;52.364;6.580;2023-09-12T11:27:24;101400.19;;;27.53;54.81
82262;BME280;71861;52.364;6.580;2023-09-12T11:29:50;101398.97;;;27.34;55.86
82262;BME280;71861;52.364;6.580;2023-09-12T11:32:31;101398.22;;;27.39;55.89
82262;BME280;71861;52.364;6.580;2023-09-12T11:34:59;101393.31;;;27.62;55.82
82262;BME280;71861;52.364;6.580;2023-09-12T11:37:26;101393.72;;;27.86;54.91
82262;BME280;71861;52.364;6.580;2023-09-12T11:39:52;101397.13;;;28.18;53.25
82262;BME280;71861;52.364;6.580;2023-09-12T11:42:18;101393.72;;;28.33;53.12
82262;BME280;71861;52.364;6.580;2023-09-12T11:44:43;101386.34;;;27.98;52.10
82262;BME280;71861;52.364;6.580;2023-09-12T11:47:10;101387.97;;;27.62;52.23
82262;BME280;71861;52.364;6.580;2023-09-12T11:49:40;101384.84;;;27.76;55.11
82262;BME280;71861;52.364;6.580;2023-09-12T11:52:11;101391.53;;;28.15;54.21
82262;BME280;71861;52.364;6.580;2023-09-12T11:54:42;101390.13;;;28.07;53.26
82262;BME280;71861;52.364;6.580;2023-09-12T11:57:09;101395.97;;;27.99;53.27
82262;BME280;71861;52.364;6.580;2023-09-12T11:59:43;101395.44;;;27.97;53.00
82262;BME280;71861;52.364;6.580;2023-09-12T12:02:10;101386.22;;;28.25;55.27
82262;BME280;71861;52.364;6.580;2023-09-12T12:04:36;101382.63;;;28.66;51.70
82262;BME280;71861;52.364;6.580;2023-09-12T12:07:02;101383.75;;;28.90;52.02
82262;BME280;71861;52.364;6.580;2023-09-12T12:09:31;101378.19;;;29.27;52.29
82262;BME280;71861;52.364;6.580;2023-09-12T12:12:04;101365.06;;;29.70;51.78
82262;BME280;71861;52.364;6.580;2023-09-12T12:14:33;101371.94;;;29.96;51.62
82262;BME280;71861;52.364;6.580;2023-09-12T12:17:08;101367.09;;;29.98;49.51
82262;BME280;71861;52.364;6.580;2023-09-12T12:19:33;101359.94;;;29.54;48.91
82262;BME280;71861;52.364;6.580;2023-09-12T12:21:59;101352.78;;;29.19;50.02
82262;BME280;71861;52.364;6.580;2023-09-12T12:24:24;101339.38;;;29.19;51.39
82262;BME280;71861;52.364;6.580;2023-09-12T12:26:49;101347.94;;;29.06;50.82
82262;BME280;71861;52.364;6.580;2023-09-12T12:29:15;101346.59;;;29.13;51.93
82262;BME280;71861;52.364;6.580;2023-09-12T12:31:40;101352.50;;;29.20;51.30
82262;BME280;71861;52.364;6.580;2023-09-12T12:34:06;101343.13;;;29.08;50.93
82262;BME280;71861;52.364;6.580;2023-09-12T12:36:31;101334.28;;;28.97;50.25
82262;BME280;71861;52.364;6.580;2023-09-12T12:38:57;101344.41;;;28.65;50.00
82262;BME280;71861;52.364;6.580;2023-09-12T12:41:28;101331.66;;;28.11;51.16
82262;BME280;71861;52.364;6.580;2023-09-12T12:43:56;101336.00;;;27.80;52.01
82262;BME280;71861;52.364;6.580;2023-09-12T12:46:24;101327.81;;;27.50;52.05
82262;BME280;71861;52.364;6.580;2023-09-12T12:48:49;101334.78;;;27.19;52.08
82262;BME280;71861;52.364;6.580;2023-09-12T12:51:22;101344.00;;;27.07;53.42
82262;BME280;71861;52.364;6.580;2023-09-12T12:53:50;101345.75;;;26.91;54.17
82262;BME280;71861;52.364;6.580;2023-09-12T12:56:20;101339.22;;;26.77;54.48
82262;BME280;71861;52.364;6.580;2023-09-12T12:58:48;101329.09;;;26.79;54.81
82262;BME280;71861;52.364;6.580;2023-09-12T13:01:15;101329.56;;;26.71;54.50
82262;BME280;71861;52.364;6.580;2023-09-12T13:03:41;101330.78;;;26.64;54.78
82262;BME280;71861;52.364;6.580;2023-09-12T13:06:07;101335.69;;;26.50;54.38
82262;BME280;71861;52.364;6.580;2023-09-12T13:08:33;101326.59;;;26.46;54.20
82262;BME280;71861;52.364;6.580;2023-09-12T13:11:00;101326.44;;;26.31;54.85
82262;BME280;71861;52.364;6.580;2023-09-12T13:13:26;101325.81;;;26.24;54.94
82262;BME280;71861;52.364;6.580;2023-09-12T13:15:52;101329.91;;;26.10;54.56
82262;BME280;71861;52.364;6.580;2023-09-12T13:18:17;101318.94;;;26.06;55.17
82262;BME280;71861;52.364;6.580;2023-09-12T13:20:43;101317.81;;;26.02;55.08
82262;BME280;71861;52.364;6.580;2023-09-12T13:23:08;101319.44;;;26.03;55.58
82262;BME280;71861;52.364;6.580;2023-09-12T13:25:34;101317.00;;;26.02;56.58
82262;BME280;71861;52.364;6.580;2023-09-12T13:27:59;101321.69;;;25.95;56.85
82262;BME280;71861;52.364;6.580;2023-09-12T13:30:24;101327.38;;;25.82;57.24
82262;BME280;71861;52.364;6.580;2023-09-12T13:32:49;101324.59;;;25.72;57.72
82262;BME280;71861;52.364;6.580;2023-09-12T13:35:15;101332.25;;;25.68;57.74
82262;BME280;71861;52.364;6.580;2023-09-12T13:37:40;101317.91;;;25.69;56.78
82262;BME280;71861;52.364;6.580;2023-09-12T13:40:06;101319.59;;;25.75;56.40
82262;BME280;71861;52.364;6.580;2023-09-12T13:42:34;101319.13;;;25.83;56.47
82262;BME280;71861;52.364;6.580;2023-09-12T13:44:59;101315.25;;;25.91;56.64
82262;BME280;71861;52.364;6.580;2023-09-12T13:47:24;101318.19;;;25.89;56.03
82262;BME280;71861;52.364;6.580;2023-09-12T13:49:51;101316.22;;;25.85;55.81
82262;BME280;71861;52.364;6.580;2023-09-12T13:52:22;101318.53;;;25.76;56.99
82262;BME280;71861;52.364;6.580;2023-09-12T13:54:48;101315.00;;;25.71;56.78
82262;BME280;71861;52.364;6.580;2023-09-12T13:57:14;101309.84;;;25.64;56.54
82262;BME280;71861;52.364;6.580;2023-09-12T13:59:40;101311.59;;;25.59;57.44
82262;BME280;71861;52.364;6.580;2023-09-12T14:02:05;101322.75;;;25.56;57.91
82262;BME280;71861;52.364;6.580;2023-09-12T14:04:31;101317.41;;;25.56;58.21
82262;BME280;71861;52.364;6.580;2023-09-12T14:06:56;101313.72;;;25.57;57.90
82262;BME280;71861;52.364;6.580;2023-09-12T14:09:21;101303.38;;;25.60;57.61
82262;BME280;71861;52.364;6.580;2023-09-12T14:11:47;101299.97;;;25.65;57.32
82262;BME280;71861;52.364;6.580;2023-09-12T14:14:13;101311.75;;;25.69;56.77
82262;BME280;71861;52.364;6.580;2023-09-12T14:16:38;101298.94;;;25.66;56.85
82262;BME280;71861;52.364;6.580;2023-09-12T14:19:03;101308.03;;;25.70;57.07
82262;BME280;71861;52.364;6.580;2023-09-12T14:21:29;101301.97;;;25.74;56.07
82262;BME280;71861;52.364;6.580;2023-09-12T14:23:54;101305.03;;;25.83;56.85
82262;BME280;71861;52.364;6.580;2023-09-12T14:26:20;101303.00;;;25.90;57.12
82262;BME280;71861;52.364;6.580;2023-09-12T14:28:45;101306.03;;;25.98;56.99
82262;BME280;71861;52.364;6.580;2023-09-12T14:31:11;101310.22;;;26.11;56.93
82262;BME280;71861;52.364;6.580;2023-09-12T14:33:40;101309.66;;;26.31;56.44
82262;BME280;71861;52.364;6.580;2023-09-12T14:36:08;101318.78;;;26.40;55.80
82262;BME280;71861;52.364;6.580;2023-09-12T14:38:35;101309.22;;;26.44;55.87
82262;BME280;71861;52.364;6.580;2023-09-12T14:41:00;101307.38;;;26.44;56.08
82262;BME280;71861;52.364;6.580;2023-09-12T14:43:25;101307.94;;;26.46;55.64
82262;BME280;71861;52.364;6.580;2023-09-12T14:45:54;101315.63;;;26.43;56.29
82262;BME280;71861;52.364;6.580;2023-09-12T14:48:19;101306.22;;;26.35;55.87
82262;BME280;71861;52.364;6.580;2023-09-12T14:50:44;101299.00;;;26.31;56.01
82262;BME280;71861;52.364;6.580;2023-09-12T14:53:14;101293.97;;;26.34;55.31
82262;BME280;71861;52.364;6.580;2023-09-12T14:55:40;101289.22;;;26.41;54.73
82262;BME280;71861;52.364;6.580;2023-09-12T14:58:05;101272.44;;;26.41;55.12
82262;BME280;71861;52.364;6.580;2023-09-12T15:00:30;101274.81;;;26.37;55.34
82262;BME280;71861;52.364;6.580;2023-09-12T15:02:57;101272.03;;;26.27;54.55
82262;BME280;71861;52.364;6.580;2023-09-12T15:05:23;101270.22;;;26.06;54.96
82262;BME280;71861;52.364;6.580;2023-09-12T15:07:48;101267.44;;;25.79;55.81
82262;BME280;71861;52.364;6.580;2023-09-12T15:10:13;101269.78;;;25.76;56.60
82262;BME280;71861;52.364;6.580;2023-09-12T15:12:39;101267.88;;;25.71;56.53
82262;BME280;71861;52.364;6.580;2023-09-12T15:15:04;101265.44;;;25.48;56.23
82262;BME280;71861;52.364;6.580;2023-09-12T15:17:30;101262.31;;;25.35;56.89
82262;BME280;71861;52.364;6.580;2023-09-12T15:19:55;101266.59;;;25.36;57.64
82262;BME280;71861;52.364;6.580;2023-09-12T15:22:21;101267.72;;;25.40;57.03
82262;BME280;71861;52.364;6.580;2023-09-12T15:24:46;101275.75;;;25.45;57.15
82262;BME280;71861;52.364;6.580;2023-09-12T15:27:11;101271.56;;;25.49;57.71
82262;BME280;71861;52.364;6.580;2023-09-12T15:29:37;101272.13;;;25.51;56.83
82262;BME280;71861;52.364;6.580;2023-09-12T15:32:02;101273.41;;;25.48;57.03
82262;BME280;71861;52.364;6.580;2023-09-12T15:34:28;101276.81;;;25.44;57.69
82262;BME280;71861;52.364;6.580;2023-09-12T15:37:07;101267.72;;;25.40;57.50
82262;BME280;71861;52.364;6.580;2023-09-12T15:39:33;101269.31;;;25.41;57.53
82262;BME280;71861;52.364;6.580;2023-09-12T15:41:58;101268.47;;;25.35;57.05
82262;BME280;71861;52.364;6.580;2023-09-12T15:44:23;101265.22;;;25.33;57.69
82262;BME280;71861;52.364;6.580;2023-09-12T15:46:51;101263.09;;;25.19;57.30
82262;BME280;71861;52.364;6.580;2023-09-12T15:49:16;101261.28;;;25.03;58.43
82262;BME280;71861;52.364;6.580;2023-09-12T15:51:41;101254.09;;;24.87;59.32
82262;BME280;71861;52.364;6.580;2023-09-12T15:54:07;101255.31;;;24.79;60.12
82262;BME280;71861;52.364;6.580;2023-09-12T15:56:32;101259.75;;;24.74;60.66
82262;BME280;71861;52.364;6.580;2023-09-12T15:58:57;101259.88;;;24.67;60.99